createdAt,value
2023-05-09T00:00:34.091Z,17.85
2023-05-09T00:03:06.098Z,17.17
2023-05-09T00:05:36.650Z,14.45
2023-05-09T00:08:08.011Z,19.60
2023-05-09T00:10:38.577Z,19.05
2023-05-09T00:13:12.368Z,20.00
2023-05-09T00:15:44.484Z,16.17
2023-05-09T00:18:15.152Z,16.50
2023-05-09T00:20:45.726Z,17.70
2023-05-09T00:23:16.765Z,18.90
2023-05-09T00:25:47.274Z,19.33
2023-05-09T00:28:20.704Z,17.23
2023-05-09T00:30:51.251Z,21.30
2023-05-09T00:33:22.173Z,17.48
2023-05-09T00:35:52.650Z,21.02
2023-05-09T00:38:23.182Z,19.67
2023-05-09T00:40:53.769Z,21.42
2023-05-09T00:43:27.174Z,20.30
2023-05-09T00:45:58.080Z,23.70
2023-05-09T00:48:28.557Z,20.17
2023-05-09T00:50:59.285Z,19.48
2023-05-09T00:53:30.846Z,21.50
2023-05-09T00:56:03.292Z,28.95
2023-05-09T00:58:36.399Z,20.92
2023-05-09T01:01:06.906Z,19.40
2023-05-09T01:03:38.911Z,19.70
2023-05-09T01:06:17.944Z,19.80
2023-05-09T01:08:56.309Z,23.55
2023-05-09T01:11:35.524Z,19.55
2023-05-09T01:14:21.896Z,21.08
2023-05-09T01:16:59.044Z,20.13
2023-05-09T01:19:48.813Z,18.80
2023-05-09T01:22:19.977Z,19.30
2023-05-09T01:25:22.484Z,20.98
2023-05-09T01:28:02.026Z,18.85
2023-05-09T01:30:37.755Z,18.60
2023-05-09T01:33:11.262Z,19.60
2023-05-09T01:35:45.027Z,22.00
2023-05-09T01:38:20.384Z,27.65
2023-05-09T01:40:55.764Z,20.00
2023-05-09T01:43:31.193Z,20.30
2023-05-09T01:46:05.391Z,20.70
2023-05-09T01:48:38.031Z,21.58
2023-05-09T01:51:10.060Z,20.38
2023-05-09T01:53:40.703Z,24.83
2023-05-09T01:56:12.570Z,26.15
2023-05-09T01:58:44.232Z,22.92
2023-05-09T02:01:18.626Z,22.10
2023-05-09T02:03:55.256Z,21.38
2023-05-09T02:06:29.881Z,24.88
2023-05-09T02:09:01.539Z,22.38
2023-05-09T02:11:32.214Z,24.15
2023-05-09T02:14:02.835Z,30.20
2023-05-09T02:16:36.388Z,22.10
2023-05-09T02:19:06.873Z,25.00
2023-05-09T02:21:37.473Z,21.90
2023-05-09T02:24:09.463Z,23.25
2023-05-09T02:26:40.054Z,25.38
2023-05-09T02:29:10.951Z,21.35
2023-05-09T02:31:45.577Z,22.90
2023-05-09T02:34:17.189Z,20.73
2023-05-09T02:36:48.097Z,21.88
2023-05-09T02:39:18.689Z,22.15
2023-05-09T02:41:52.333Z,21.83
2023-05-09T02:44:22.865Z,19.25
2023-05-09T02:46:55.907Z,19.30
2023-05-09T02:49:32.050Z,21.80
2023-05-09T02:52:05.040Z,18.90
2023-05-09T02:54:35.478Z,20.52
2023-05-09T02:57:06.002Z,21.40
2023-05-09T02:59:36.744Z,21.08
2023-05-09T03:02:09.833Z,19.77
2023-05-09T03:04:40.457Z,19.10
2023-05-09T03:07:11.683Z,22.58
2023-05-09T03:09:42.049Z,18.90
2023-05-09T03:12:12.682Z,21.65
2023-05-09T03:14:43.127Z,20.20
2023-05-09T03:17:17.524Z,20.10
2023-05-09T03:19:48.360Z,20.98
2023-05-09T03:22:19.301Z,23.02
2023-05-09T03:25:00.984Z,23.90
2023-05-09T03:27:31.424Z,21.05
2023-05-09T03:30:02.253Z,27.95
2023-05-09T03:32:35.398Z,24.30
2023-05-09T03:35:06.691Z,23.30
2023-05-09T03:37:37.346Z,22.02
2023-05-09T03:40:11.996Z,26.48
2023-05-09T03:42:49.937Z,24.27
2023-05-09T03:45:20.357Z,26.67
2023-05-09T03:47:53.893Z,23.67
2023-05-09T03:50:24.391Z,22.23
2023-05-09T03:52:57.149Z,23.40
2023-05-09T03:55:27.782Z,20.73
2023-05-09T03:57:58.391Z,38.08
2023-05-09T04:00:29.180Z,31.17
2023-05-09T04:03:10.905Z,36.42
2023-05-09T04:05:45.566Z,25.52
2023-05-09T04:08:23.942Z,31.80
2023-05-09T04:10:54.612Z,28.77
2023-05-09T04:13:25.553Z,27.40
2023-05-09T04:15:56.248Z,28.48
2023-05-09T04:18:30.984Z,28.27
2023-05-09T04:21:01.580Z,25.58
2023-05-09T04:23:32.059Z,24.27
2023-05-09T04:26:03.547Z,23.63
2023-05-09T04:28:34.312Z,27.55
2023-05-09T04:31:05.076Z,29.08
2023-05-09T04:33:39.528Z,31.63
2023-05-09T04:36:11.586Z,30.33
2023-05-09T04:38:42.276Z,27.20
2023-05-09T04:41:16.529Z,28.85
2023-05-09T04:43:47.080Z,27.50
2023-05-09T04:46:17.851Z,28.85
2023-05-09T04:48:51.063Z,31.80
2023-05-09T04:51:21.729Z,26.75
2023-05-09T04:53:52.388Z,26.90
2023-05-09T04:56:26.150Z,24.93
2023-05-09T04:58:56.520Z,25.25
2023-05-09T05:01:27.623Z,32.33
2023-05-09T05:04:01.642Z,24.00
2023-05-09T05:06:34.390Z,25.42
2023-05-09T05:09:05.305Z,23.08
2023-05-09T05:11:35.999Z,23.45
2023-05-09T05:14:08.042Z,31.77
2023-05-09T05:16:38.655Z,31.80
2023-05-09T05:19:11.753Z,27.73
2023-05-09T05:21:44.343Z,22.98
2023-05-09T05:24:15.032Z,25.08
2023-05-09T05:26:45.643Z,33.92
2023-05-09T05:29:16.217Z,25.75
2023-05-09T05:31:46.751Z,25.90
2023-05-09T05:34:19.901Z,26.70
2023-05-09T05:36:50.566Z,31.30
2023-05-09T05:39:20.989Z,37.70
2023-05-09T05:41:52.189Z,29.38
2023-05-09T05:44:23.244Z,27.25
2023-05-09T05:46:53.732Z,30.00
2023-05-09T05:49:27.744Z,31.02
2023-05-09T05:51:58.180Z,31.25
2023-05-09T05:54:30.024Z,32.90
2023-05-09T05:57:00.626Z,27.23
2023-05-09T05:59:31.275Z,31.17
2023-05-09T06:02:01.794Z,32.58
2023-05-09T06:04:35.646Z,26.80
2023-05-09T06:07:06.190Z,31.85
2023-05-09T06:09:36.679Z,28.25
2023-05-09T06:12:08.241Z,30.88
2023-05-09T06:14:38.820Z,29.27
2023-05-09T06:17:09.551Z,26.70
2023-05-09T06:19:42.891Z,27.13
2023-05-09T06:22:13.505Z,29.85
2023-05-09T06:24:43.946Z,28.48
2023-05-09T06:27:14.585Z,31.52
2023-05-09T06:29:45.100Z,27.20
2023-05-09T06:32:15.572Z,32.55
2023-05-09T06:34:48.501Z,31.50
2023-05-09T06:37:19.092Z,27.95
2023-05-09T06:39:50.500Z,31.15
2023-05-09T06:42:20.995Z,27.90
2023-05-09T06:44:52.819Z,34.42
2023-05-09T06:47:23.438Z,31.65
2023-05-09T06:49:56.541Z,28.88
2023-05-09T06:52:27.156Z,33.33
2023-05-09T06:54:57.664Z,33.60
2023-05-09T06:57:28.448Z,31.15
2023-05-09T06:59:59.003Z,31.92
2023-05-09T07:02:29.762Z,33.65
2023-05-09T07:05:02.771Z,30.00
2023-05-09T07:07:33.309Z,29.17
2023-05-09T07:10:11.141Z,32.72
2023-05-09T07:12:42.291Z,22.83
2023-05-09T07:15:15.571Z,27.38
2023-05-09T07:17:51.037Z,23.50
2023-05-09T07:20:24.580Z,30.85
2023-05-09T07:22:55.301Z,32.42
2023-05-09T07:25:26.079Z,23.60
2023-05-09T07:27:56.464Z,23.88
2023-05-09T07:30:27.150Z,24.65
2023-05-09T07:32:57.688Z,24.45
2023-05-09T07:35:30.890Z,23.40
2023-05-09T07:38:01.243Z,27.55
2023-05-09T07:40:32.064Z,21.63
2023-05-09T07:43:02.704Z,21.92
2023-05-09T07:45:33.218Z,23.55
2023-05-09T07:48:03.683Z,19.95
2023-05-09T07:50:36.869Z,22.80
2023-05-09T07:53:07.747Z,20.40
2023-05-09T07:55:38.193Z,20.20
2023-05-09T07:58:08.516Z,17.75
2023-05-09T08:00:38.963Z,19.27
2023-05-09T08:03:09.464Z,16.10
2023-05-09T08:05:43.206Z,15.88
2023-05-09T08:08:13.572Z,14.05
2023-05-09T08:10:44.166Z,16.85
2023-05-09T08:13:14.643Z,19.17
2023-05-09T08:15:45.218Z,17.42
2023-05-09T08:18:16.041Z,16.85
2023-05-09T08:20:49.302Z,17.58
2023-05-09T08:23:19.634Z,15.07
2023-05-09T08:25:50.241Z,15.80
2023-05-09T08:28:22.312Z,20.48
2023-05-09T08:30:52.829Z,15.82
2023-05-09T08:33:23.305Z,17.50
2023-05-09T08:35:59.291Z,16.58
2023-05-09T08:38:29.671Z,15.82
2023-05-09T08:41:03.774Z,16.88
2023-05-09T08:43:36.850Z,15.20
2023-05-09T08:46:11.101Z,14.00
2023-05-09T08:48:42.337Z,16.42
2023-05-09T08:51:16.297Z,14.70
2023-05-09T08:53:47.263Z,20.88
2023-05-09T08:56:18.056Z,16.73
2023-05-09T08:58:48.997Z,17.23
2023-05-09T09:01:20.706Z,20.85
2023-05-09T09:03:52.339Z,18.52
2023-05-09T09:06:26.422Z,19.58
2023-05-09T09:08:58.967Z,18.77
2023-05-09T09:11:31.107Z,17.38
2023-05-09T09:14:05.758Z,16.63
2023-05-09T09:19:13.305Z,18.52
2023-05-09T09:21:51.159Z,20.95
2023-05-09T09:24:26.334Z,18.40
2023-05-09T09:26:56.766Z,16.60
2023-05-09T09:29:28.900Z,17.90
2023-05-09T09:31:59.534Z,20.33
2023-05-09T09:34:29.923Z,19.52
2023-05-09T09:37:03.149Z,20.13
2023-05-09T09:39:33.692Z,16.30
2023-05-09T09:42:16.133Z,20.15
2023-05-09T09:44:46.628Z,13.88
2023-05-09T09:47:17.042Z,13.68
2023-05-09T09:49:50.340Z,12.20
2023-05-09T09:52:28.856Z,13.65
2023-05-09T09:54:59.482Z,14.70
2023-05-09T09:57:44.124Z,12.65
2023-05-09T10:00:36.731Z,14.65
2023-05-09T10:03:07.535Z,13.30
2023-05-09T10:05:41.121Z,12.20
2023-05-09T10:08:14.397Z,12.02
2023-05-09T10:10:45.756Z,12.00
2023-05-09T10:13:16.490Z,12.25
2023-05-09T10:15:53.654Z,11.38
2023-05-09T10:18:31.213Z,12.75
2023-05-09T10:21:05.343Z,12.75
2023-05-09T10:23:41.395Z,10.32
2023-05-09T10:26:21.204Z,11.93
2023-05-09T10:28:52.755Z,15.15
2023-05-09T10:31:29.362Z,12.35
2023-05-09T10:34:00.188Z,16.35
2023-05-09T10:36:34.020Z,13.93
2023-05-09T10:39:08.018Z,18.02
2023-05-09T10:41:39.841Z,12.57
2023-05-09T10:44:10.699Z,16.08
2023-05-09T10:46:42.016Z,11.48
2023-05-09T10:49:12.872Z,10.70
2023-05-09T10:51:43.321Z,11.35
2023-05-09T10:54:33.487Z,12.77
2023-05-09T10:57:05.767Z,17.30
2023-05-09T10:59:40.254Z,13.27
2023-05-09T11:02:17.602Z,14.13
2023-05-09T11:04:49.155Z,12.10
2023-05-09T11:07:30.329Z,12.43
2023-05-09T11:10:18.177Z,15.40
2023-05-09T11:12:59.753Z,16.63
2023-05-09T11:15:30.583Z,13.07
2023-05-09T11:18:13.171Z,14.05
2023-05-09T11:20:47.318Z,13.05
2023-05-09T11:23:20.386Z,18.83
2023-05-09T11:25:53.560Z,13.70
2023-05-09T11:28:31.695Z,11.90
2023-05-09T11:31:16.900Z,12.00
2023-05-09T11:33:49.654Z,12.68
2023-05-09T11:36:29.368Z,20.08
2023-05-09T11:39:10.274Z,11.63
2023-05-09T11:41:48.905Z,12.70
2023-05-09T11:44:21.082Z,10.02
2023-05-09T11:46:52.841Z,12.82
2023-05-09T11:49:23.232Z,11.40
2023-05-09T11:51:53.726Z,17.58
2023-05-09T11:54:27.408Z,10.88
2023-05-09T11:57:02.042Z,12.07
2023-05-09T11:59:32.408Z,7.22
2023-05-09T12:02:07.329Z,8.68
2023-05-09T12:04:39.158Z,9.52
2023-05-09T12:07:09.816Z,9.10
2023-05-09T12:09:40.926Z,9.48
2023-05-09T12:12:20.984Z,11.07
2023-05-09T12:14:52.139Z,9.98
2023-05-09T12:17:23.267Z,9.13
2023-05-09T12:19:56.168Z,7.82
2023-05-09T12:22:26.772Z,6.80
2023-05-09T12:24:57.236Z,8.63
2023-05-09T12:27:30.264Z,9.73
2023-05-09T12:30:00.943Z,8.05
2023-05-09T12:32:33.150Z,8.90
2023-05-09T12:35:04.030Z,8.00
2023-05-09T12:37:35.485Z,7.57
2023-05-09T12:40:08.652Z,11.48
2023-05-09T12:42:42.861Z,7.60
2023-05-09T12:45:15.161Z,10.90
2023-05-09T12:47:45.911Z,9.73
2023-05-09T12:50:16.405Z,6.47
2023-05-09T12:53:01.468Z,6.30
2023-05-09T12:55:34.418Z,7.55
2023-05-09T12:58:07.517Z,4.55
2023-05-09T13:00:47.171Z,5.32
2023-05-09T13:03:25.486Z,4.00
2023-05-09T13:06:00.399Z,6.07
2023-05-09T13:08:31.870Z,5.47
2023-05-09T13:11:14.971Z,9.65
2023-05-09T13:13:49.463Z,4.30
2023-05-09T13:16:19.877Z,3.03
2023-05-09T13:18:50.334Z,4.85
2023-05-09T13:21:21.342Z,6.63
2023-05-09T13:23:52.350Z,4.47
2023-05-09T13:26:23.136Z,10.25
2023-05-09T13:28:56.293Z,6.60
2023-05-09T13:31:26.684Z,4.88
2023-05-09T13:33:57.186Z,5.78
2023-05-09T13:36:27.546Z,5.65
2023-05-09T13:38:58.301Z,6.75
2023-05-09T13:41:30.953Z,4.85
2023-05-09T13:44:03.892Z,5.70
2023-05-09T13:46:34.461Z,5.07
2023-05-09T13:49:05.051Z,2.92
2023-05-09T13:51:35.451Z,10.63
2023-05-09T13:54:08.982Z,6.22
2023-05-09T13:56:39.566Z,5.28
2023-05-09T13:59:13.097Z,2.63
2023-05-09T14:01:43.632Z,4.10
2023-05-09T14:04:14.982Z,4.65
2023-05-09T14:06:48.370Z,3.45
2023-05-09T14:09:19.511Z,5.47
2023-05-09T14:11:51.731Z,6.53
2023-05-09T14:14:27.188Z,4.05
2023-05-09T14:16:59.296Z,5.00
2023-05-09T14:19:31.053Z,3.90
2023-05-09T14:22:01.573Z,3.90
2023-05-09T14:24:33.436Z,8.32
2023-05-09T14:27:03.978Z,14.15
2023-05-09T14:29:41.203Z,6.45
2023-05-09T14:32:13.153Z,5.20
2023-05-09T14:34:43.590Z,3.00
2023-05-09T14:37:16.380Z,3.08
2023-05-09T14:39:49.644Z,6.63
2023-05-09T14:42:20.225Z,4.60
2023-05-09T14:44:53.280Z,6.13
2023-05-09T14:47:23.774Z,3.25
2023-05-09T14:49:54.354Z,8.25
2023-05-09T14:52:24.951Z,3.67
2023-05-09T14:54:55.401Z,3.58
2023-05-09T14:57:25.773Z,3.47
2023-05-09T15:00:03.183Z,2.53
2023-05-09T15:02:39.582Z,16.63
2023-05-09T15:05:11.651Z,11.57
2023-05-09T15:07:42.097Z,7.78
2023-05-09T15:10:13.779Z,4.43
2023-05-09T15:12:44.546Z,2.58
2023-05-09T15:15:24.295Z,1.98
2023-05-09T15:17:55.594Z,4.22
2023-05-09T15:20:26.118Z,8.40
2023-05-09T15:22:56.604Z,2.70
2023-05-09T15:25:28.002Z,4.78
2023-05-09T15:27:59.515Z,3.45
2023-05-09T15:30:32.739Z,4.60
2023-05-09T15:33:03.134Z,4.63
2023-05-09T15:35:34.030Z,4.60
2023-05-09T15:38:04.417Z,1.42
2023-05-09T15:40:34.846Z,1.77
2023-05-09T15:43:08.365Z,1.25
2023-05-09T15:45:46.829Z,4.10
2023-05-09T15:50:48.723Z,7.40
2023-05-09T15:53:19.211Z,13.60
2023-05-09T15:55:49.633Z,7.40
2023-05-09T15:58:19.971Z,6.03
2023-05-09T16:00:53.519Z,5.65
2023-05-09T16:03:25.229Z,4.77
2023-05-09T16:05:56.223Z,8.20
2023-05-09T16:08:26.742Z,4.78
2023-05-09T16:10:57.144Z,6.88
2023-05-09T16:13:27.649Z,12.07
2023-05-09T16:16:00.844Z,5.13
2023-05-09T16:18:31.681Z,3.92
2023-05-09T16:21:02.316Z,7.40
2023-05-09T16:23:33.100Z,7.60
2023-05-09T16:26:03.626Z,8.75
2023-05-09T16:28:33.966Z,5.25
2023-05-09T16:31:08.762Z,8.55
2023-05-09T16:33:39.116Z,9.15
2023-05-09T16:36:10.734Z,6.35
2023-05-09T16:38:41.317Z,10.77
2023-05-09T16:41:11.731Z,5.28
2023-05-09T16:43:43.114Z,5.57
2023-05-09T16:46:16.471Z,5.70
2023-05-09T16:48:47.430Z,8.85
2023-05-09T16:51:18.506Z,7.72
2023-05-09T16:53:49.262Z,6.82
2023-05-09T16:56:19.835Z,5.85
2023-05-09T16:58:50.478Z,4.75
2023-05-09T17:01:23.717Z,5.38
2023-05-09T17:03:54.277Z,7.75
2023-05-09T17:06:25.202Z,6.80
2023-05-09T17:08:55.955Z,14.05
2023-05-09T17:11:26.854Z,7.03
2023-05-09T17:13:57.602Z,7.95
2023-05-09T17:16:31.093Z,8.45
2023-05-09T17:19:01.843Z,6.83
2023-05-09T17:21:32.276Z,8.27
2023-05-09T17:24:03.175Z,9.02
2023-05-09T17:26:33.600Z,9.27
2023-05-09T17:29:04.029Z,11.48
2023-05-09T17:31:37.264Z,6.63
2023-05-09T17:34:07.669Z,6.13
2023-05-09T17:36:38.041Z,5.55
2023-05-09T17:39:08.557Z,6.88
2023-05-09T17:41:38.997Z,7.07
2023-05-09T17:44:09.487Z,6.82
2023-05-09T17:46:42.950Z,9.23
2023-05-09T17:49:14.302Z,6.45
2023-05-09T17:51:44.728Z,6.38
2023-05-09T17:54:16.017Z,7.50
2023-05-09T17:56:46.594Z,7.63
2023-05-09T17:59:16.974Z,7.80
2023-05-09T18:01:50.246Z,5.13
2023-05-09T18:04:21.120Z,7.55
2023-05-09T18:06:52.535Z,10.82
2023-05-09T18:09:23.150Z,5.05
2023-05-09T18:11:53.829Z,5.03
2023-05-09T18:14:24.298Z,4.88
2023-05-09T18:16:57.524Z,7.18
2023-05-09T18:19:28.245Z,4.85
2023-05-09T18:21:58.669Z,3.90
2023-05-09T18:24:29.081Z,2.97
2023-05-09T18:26:59.467Z,5.45
2023-05-09T18:29:29.942Z,8.13
2023-05-09T18:32:03.200Z,3.72
2023-05-09T18:34:33.743Z,4.93
2023-05-09T18:37:04.158Z,5.78
2023-05-09T18:39:34.708Z,4.50
2023-05-09T18:42:06.501Z,12.30
2023-05-09T18:44:38.886Z,12.35
2023-05-09T18:47:12.214Z,3.72
2023-05-09T18:49:42.696Z,3.10
2023-05-09T18:52:13.757Z,5.95
2023-05-09T18:54:44.457Z,2.10
2023-05-09T18:57:14.996Z,4.63
2023-05-09T18:59:45.988Z,6.03
2023-05-09T19:02:19.133Z,3.47
2023-05-09T19:04:50.770Z,5.63
2023-05-09T19:07:21.349Z,2.88
2023-05-09T19:09:52.400Z,3.55
2023-05-09T19:12:23.004Z,8.02
2023-05-09T19:14:53.767Z,5.32
2023-05-09T19:17:26.818Z,2.40
2023-05-09T19:19:57.493Z,3.17
2023-05-09T19:22:28.978Z,2.40
2023-05-09T19:25:01.011Z,7.30
2023-05-09T19:27:31.543Z,3.35
2023-05-09T19:30:02.109Z,2.83
2023-05-09T19:32:35.111Z,6.75
2023-05-09T19:35:05.596Z,5.80
2023-05-09T19:37:36.292Z,6.85
2023-05-09T19:40:08.239Z,4.10
2023-05-09T19:42:39.257Z,5.47
2023-05-09T19:45:11.225Z,3.58
2023-05-09T19:47:44.326Z,5.90
2023-05-09T19:50:15.070Z,3.38
2023-05-09T19:52:45.652Z,3.08
2023-05-09T19:55:16.442Z,2.78
2023-05-09T19:57:47.474Z,6.07
2023-05-09T20:00:19.103Z,4.20
2023-05-09T20:02:52.675Z,5.03
2023-05-09T20:05:23.420Z,6.00
2023-05-09T20:07:53.806Z,3.72
2023-05-09T20:10:24.608Z,3.28
2023-05-09T20:12:58.374Z,4.88
2023-05-09T20:15:29.010Z,3.60
2023-05-09T20:18:03.905Z,7.15
2023-05-09T20:20:34.501Z,5.45
2023-05-09T20:23:04.983Z,3.90
2023-05-09T20:25:35.352Z,3.42
2023-05-09T20:28:05.757Z,5.68
2023-05-09T20:30:36.177Z,4.10
2023-05-09T20:33:09.276Z,3.10
2023-05-09T20:35:39.989Z,4.13
2023-05-09T20:38:10.393Z,5.13
2023-05-09T20:40:41.285Z,6.85
2023-05-09T20:43:11.847Z,5.30
2023-05-09T20:45:43.110Z,4.32
2023-05-09T20:48:16.418Z,4.25
2023-05-09T20:50:46.985Z,4.07
2023-05-09T20:53:17.925Z,6.30
2023-05-09T20:55:50.477Z,6.15
2023-05-09T20:58:21.263Z,5.78
2023-05-09T21:00:51.854Z,4.10
2023-05-09T21:03:24.949Z,2.78
2023-05-09T21:05:55.480Z,3.53
2023-05-09T21:08:26.423Z,3.60
2023-05-09T21:10:56.820Z,3.60
2023-05-09T21:13:27.321Z,2.88
2023-05-09T21:15:57.898Z,3.83
2023-05-09T21:18:31.092Z,5.22
2023-05-09T21:21:04.586Z,4.07
2023-05-09T21:23:35.072Z,2.90
2023-05-09T21:26:05.522Z,2.70
2023-05-09T21:28:36.032Z,2.33
2023-05-09T21:33:39.761Z,3.40
2023-05-09T21:36:11.248Z,2.65
2023-05-09T21:38:41.769Z,4.63
2023-05-09T21:41:12.952Z,5.85
2023-05-09T21:43:43.361Z,2.20
2023-05-09T21:46:13.923Z,2.47
2023-05-09T21:48:46.987Z,2.40
2023-05-09T21:51:17.490Z,1.45
2023-05-09T21:53:47.979Z,2.95
2023-05-09T21:56:18.598Z,3.45
2023-05-09T21:58:49.040Z,1.50
2023-05-09T22:01:20.340Z,3.95
2023-05-09T22:03:53.789Z,4.35
2023-05-09T22:06:24.326Z,2.15
2023-05-09T22:08:54.798Z,4.07
2023-05-09T22:11:25.180Z,4.50
2023-05-09T22:13:55.554Z,3.05
2023-05-09T22:16:25.969Z,3.33
2023-05-09T22:18:59.405Z,4.28
2023-05-09T22:21:30.048Z,7.65
2023-05-09T22:24:00.853Z,3.58
2023-05-09T22:26:31.223Z,3.35
2023-05-09T22:29:01.668Z,2.67
2023-05-09T22:31:32.153Z,5.45
2023-05-09T22:34:05.366Z,5.32
2023-05-09T22:36:35.868Z,5.13
2023-05-09T22:39:06.569Z,5.47
2023-05-09T22:41:37.035Z,4.15
2023-05-09T22:44:08.115Z,3.45
2023-05-09T22:46:38.619Z,2.45
2023-05-09T22:49:12.112Z,4.03
2023-05-09T22:51:42.653Z,6.88
2023-05-09T22:54:13.197Z,4.22
2023-05-09T22:56:43.849Z,2.60
2023-05-09T22:59:14.473Z,2.65
2023-05-09T23:01:44.882Z,1.92
2023-05-09T23:04:18.280Z,2.47
2023-05-09T23:06:48.692Z,5.18
2023-05-09T23:09:19.237Z,1.92
2023-05-09T23:11:49.728Z,6.55
2023-05-09T23:14:20.104Z,10.88
2023-05-09T23:16:50.996Z,3.47
2023-05-09T23:19:23.968Z,1.92
2023-05-09T23:21:54.381Z,2.50
2023-05-09T23:24:25.002Z,3.55
2023-05-09T23:26:56.818Z,3.83
2023-05-09T23:29:28.266Z,2.63
2023-05-09T23:31:58.656Z,2.55
2023-05-09T23:34:31.837Z,1.83
2023-05-09T23:37:02.304Z,1.42
2023-05-09T23:39:32.776Z,1.35
2023-05-09T23:42:04.245Z,3.03
2023-05-09T23:44:34.609Z,2.60
2023-05-09T23:47:05.038Z,1.67
2023-05-09T23:49:37.976Z,3.38
2023-05-09T23:52:09.946Z,3.28
2023-05-09T23:54:40.626Z,2.97
2023-05-09T23:57:11.096Z,3.70
2023-05-09T23:59:42.279Z,1.35
